Skip Navigation Links Skip Navigation Links

Current Weather

Sdr Stroemfjord, Greenland

For information only: do not use for flight planning or navigation.
Latest weather
Observation time Thursday, October 17, 2019 2:50 AM WGST
Local time Thursday, October 17, 2019 3:59 AM WGST
Flight conditions Conditions unknown
Winds
Wind direction Northeast (40°)
Wind speed 9 mph
Sky condition
Ceiling unlimited
Temperature 14°F
Dewpoint 9°F
Altimeter 30.00 in.Hg
Derived measurements
Relative humidity 79%
Wind chill 2°F
Density altitude -3008 ft.
Remarks
Fully automated report.
METAR BGSF 170450Z AUTO 04008KT 9999NDV NCD M10/M13 Q1016

Settings

Location code

InnerDrive.Weather 4.0.6770.0 Release CLR 4.0.30319.42000
Copyright ©2018 Inner Drive Technology. All rights reserved. Portions Copyright ©1986-2018 David Braverman.

Find weather

Site navigation


Skip Navigation Links

Place info

Page info

PayPal - The safer, easier way to pay online!

Return home.

Copyright ©2019 Inner Drive Technology. Purveyors of fine, hand-crafted computer software. Page printed 2019-10-17T05:59:21 UTC.